• Join FlightAware (Why Join?)
  • Login
  • US Flag 
08:33PM EDT


 

Airport Tracker/Info


-or-


 

Live Flight TrackerFlight Track Log ✈ SWA279 ✈ 19-Apr-2013 ✈ KLAX - KRNO

Flight Track Log - Related Links

Times and Time Zones

All times are in EDT time to prevent confusion due to time zone crossing. See the SWA279 flight status page for this flight to view local times or setup timezone preferences in your user account.

Time Position Orientation Groundspeed Altitude Reporting Facility
EDT Latitude Longitude Course Direction KTS MPH feet Rate Location/Type
08:04PM 33.9414 -118.5103 257° West 215 247 3,500  Level Los Angeles Center
08:05PM 33.9350 -118.6008 265° West 255 293 7,300 2,640 Climbing Los Angeles Center
08:06PM 33.9694 -118.6739 300° West 269 310 9,000 780 Climbing Los Angeles Center
08:07PM 34.0356 -118.7100 336° Northwest 274 315 9,000  Level Los Angeles Center
08:08PM 34.1008 -118.6622 31° Northeast 275 316 9,000 840 Level Los Angeles Center
08:09PM 34.1706 -118.6264 23° Northeast 273 314 10,800 1,980 Climbing Los Angeles Center
08:10PM 34.2619 -118.6150 North 334 384 13,200 2,760 Climbing Los Angeles Center
08:11PM 34.3569 -118.6394 348° North 350 403 16,600 3,360 Climbing Los Angeles Center
08:12PM 34.4714 -118.6950 338° Northwest 367 422 20,200 3,120 Climbing Los Angeles Center
08:13PM 34.5706 -118.7447 338° Northwest 384 442 23,100 2,580 Climbing Los Angeles Center
08:14PM 34.6733 -118.7836 343° North 388 447 25,600 2,160 Climbing Los Angeles Center
08:15PM 34.7869 -118.8028 352° North 410 472 27,600 1,920 Climbing Los Angeles Center
08:16PM 34.9097 -118.8233 352° North 420 483 29,600 1,980 Climbing Los Angeles Center
08:17PM 35.0278 -118.8425 352° North 427 491 31,800 2,100 Climbing Los Angeles Center
08:18PM 35.1425 -118.8628 352° North 421 484 34,000 2,160 Climbing Los Angeles Center
08:19PM 35.2811 -118.8850 353° North 421 484 36,300 1,740 Climbing Los Angeles Center
08:21PM 35.3928 -118.9044 352° North 412 474 37,700 780 Climbing Los Angeles Center
08:22PM 35.5044 -118.9236 352° North 409 471 38,000 120 Climbing Los Angeles Center
08:23PM 35.6169 -118.9436 352° North 408 470 38,000  Level Los Angeles Center
08:24PM 35.7261 -118.9625 352° North 409 471 38,000  Level Oakland Center
08:25PM 35.8369 -118.9811 352° North 406 467 38,000  Level Oakland Center
08:26PM 35.9711 -119.0056 352° North 407 468 38,000  Level Oakland Center
08:27PM 36.0819 -119.0244 352° North 405 466 38,000  Level Oakland Center
08:28PM 36.1925 -119.0442 352° North 403 464 38,000  Level Oakland Center
08:29PM 36.3047 -119.0639 352° North 408 470 38,000  Level Oakland Center
08:30PM 36.4144 -119.0833 352° North 400 460 38,000 -600 Level Oakland Center
08:31PM 36.5233 -119.1017 352° North 396 456 36,800 -1,080 Descending Oakland Center
08:32PM 36.6333 -119.1217 352° North 400 460 35,900 -420 Descending Oakland Center
08:33PM 36.7408 -119.1422 351° North 393 452 36,000  Climbing Oakland Center
08:34PM 36.8708 -119.1644 352° North 397 457 36,000 -180 Level Oakland Center
08:35PM 36.9783 -119.1861 351° North 399 459 35,700 -660 Descending Oakland Center
08:36PM 37.0833 -119.2064 351° North 391 450 34,700 -1,020 Descending Oakland Center
08:37PM 37.1883 -119.2261 351° North 392 451 33,700 -1,020 Descending Oakland Center
08:38PM 37.2911 -119.2439 352° North 379 436 32,700 -1,020 Descending Oakland Center
08:39PM 37.3908 -119.2628 351° North 369 425 31,700 -1,020 Descending Oakland Center
08:40PM 37.4903 -119.2811 352° North 373 429 30,700 -1,020 Descending Oakland Center
08:41PM 37.5869 -119.3031 350° North 357 411 29,700 -1,020 Descending Oakland Center
08:42PM 37.6767 -119.3317 346° North 328 377 28,700 -1,140 Descending Oakland Center
08:43PM 37.7853 -119.3742 343° North 339 390 27,400 -1,140 Descending Oakland Center
08:44PM 37.8758 -119.4078 344° North 338 389 26,400 -1,020 Descending Oakland Center
08:45PM 37.9633 -119.4414 343° North 331 381 25,400 -1,020 Descending Oakland Center
08:46PM 38.0517 -119.4731 344° North 329 379 24,400 -720 Descending Oakland Center
08:47PM 38.1406 -119.5053 344° North 332 382 24,000 -240 Descending Oakland Center
08:48PM 38.2200 -119.5394 341° North 316 364 24,000  Level Oakland Center
08:49PM 38.3044 -119.5714 343° North 315 362 24,000 -120 Level Oakland Center
08:50PM 38.3897 -119.6039 343° North 318 366 23,800 -600 Descending Oakland Center
08:51PM 38.4783 -119.6383 343° North 312 359 22,800 -1,140 Descending Oakland Center
08:52PM 38.5608 -119.6711 343° North 310 357 21,500 -1,500 Descending Oakland Center
08:53PM 38.6400 -119.7025 343° North 303 349 19,800 -1,620 Descending Oakland Center
08:54PM 38.7172 -119.7325 343° North 296 341 18,200 -2,160 Descending Oakland Center
08:55PM 38.7917 -119.7619 343° North 286 329 15,500 -2,040 Descending Oakland Center
08:56PM 38.8744 -119.7686 356° North 296 341 14,100 -1,260 Descending Oakland Center
08:57PM 38.9758 -119.7703 359° North 305 351 13,000 -1,500 Descending Oakland Center
08:58PM 39.0583 -119.7686 North 299 344 11,100 -1,680 Descending Oakland Center
08:59PM 39.1397 -119.7683 360° North 296 341 9,600 -1,200 Descending Oakland Center
09:00PM 39.2183 -119.7658 North 292 336 8,700 -540 Descending Oakland Center
09:01PM 39.2967 -119.7656 360° North 283 326 8,600 -120 Descending Oakland Center
09:02PM 39.3536 -119.7686 358° North 275 316 8,500 -1,140 Descending Oakland Center
09:03PM 39.4000 -119.7667 North 166 191 6,600 -1,560 Descending Northern Cal TRACON
09:04PM 39.4333 -119.7667 360° North 148 170 5,700 -900 Descending Northern Cal TRACON
09:05PM 39.4667 -119.7667 360° North 154 177 4,900 -900 Descending Northern Cal TRACON
09:07PM 39.4833 -119.7667 North  Level FlightAware Approximate
09:14PM 39.4991 -119.7681 North  Level Estimated